N538TW -KASE
Flight info
| Callsign | N538TW |
|---|---|
| Flight time | N/A |
| Altitude | VFR |
| Route | |
| Aircraft | BE36/L-DOV/C |
Departure
| Time | N/A |
|---|---|
| Airport | - |
Arrival
| Time | 2026-04-22 00:16 |
|---|---|
| Airport | Aspen-Pitkin County Airport (Sardy Field) (KASE) |
| Time | Latitude | Longitude | Altitude | Speed | Heading |
|---|---|---|---|---|---|
| 2026-04-22 00:06 | 39.11389 | -106.59519 | 13534 ft | 122 kts | 278° |
| 2026-04-22 00:06 | 39.11560 | -106.60591 | 13548 ft | 123 kts | 278° |
| 2026-04-22 00:06 | 39.11732 | -106.61679 | 13551 ft | 125 kts | 278° |
| 2026-04-22 00:06 | 39.11914 | -106.62791 | 13508 ft | 131 kts | 279° |
| 2026-04-22 00:07 | 39.12080 | -106.63919 | 13434 ft | 132 kts | 278° |
| 2026-04-22 00:07 | 39.12242 | -106.65063 | 13439 ft | 127 kts | 277° |
| 2026-04-22 00:07 | 39.12397 | -106.66157 | 13442 ft | 122 kts | 269° |
| 2026-04-22 00:07 | 39.12436 | -106.67246 | 13444 ft | 122 kts | 269° |
| 2026-04-22 00:08 | 39.12478 | -106.68334 | 13448 ft | 123 kts | 269° |
| 2026-04-22 00:08 | 39.12496 | -106.69441 | 13457 ft | 125 kts | 268° |
| 2026-04-22 00:08 | 39.12504 | -106.70581 | 13469 ft | 129 kts | 268° |
| 2026-04-22 00:08 | 39.12526 | -106.71753 | 13475 ft | 133 kts | 268° |
| 2026-04-22 00:09 | 39.12558 | -106.72953 | 13478 ft | 136 kts | 268° |
| 2026-04-22 00:09 | 39.12583 | -106.74172 | 13487 ft | 136 kts | 268° |
| 2026-04-22 00:09 | 39.12814 | -106.75344 | 13477 ft | 141 kts | 306° |
| 2026-04-22 00:09 | 39.13568 | -106.76145 | 13492 ft | 141 kts | 319° |
| 2026-04-22 00:10 | 39.14355 | -106.76899 | 13508 ft | 142 kts | 318° |
| 2026-04-22 00:10 | 39.15187 | -106.77683 | 13311 ft | 154 kts | 319° |
| 2026-04-22 00:10 | 39.16058 | -106.78539 | 13094 ft | 160 kts | 319° |
| 2026-04-22 00:10 | 39.16949 | -106.79422 | 12862 ft | 163 kts | 317° |
| 2026-04-22 00:11 | 39.17854 | -106.80309 | 12624 ft | 163 kts | 319° |
| 2026-04-22 00:11 | 39.18764 | -106.81187 | 12390 ft | 164 kts | 318° |
| 2026-04-22 00:11 | 39.19757 | -106.81926 | 12150 ft | 167 kts | 332° |
| 2026-04-22 00:11 | 39.20828 | -106.82499 | 11912 ft | 165 kts | 334° |
| 2026-04-22 00:12 | 39.21869 | -106.83048 | 11593 ft | 163 kts | 333° |
| 2026-04-22 00:12 | 39.22936 | -106.83602 | 11243 ft | 167 kts | 334° |
| 2026-04-22 00:12 | 39.24017 | -106.84162 | 10898 ft | 166 kts | 334° |
| 2026-04-22 00:12 | 39.25106 | -106.84738 | 10538 ft | 164 kts | 332° |
| 2026-04-22 00:13 | 39.26141 | -106.85263 | 10208 ft | 165 kts | 334° |
| 2026-04-22 00:13 | 39.27150 | -106.85946 | 9854 ft | 163 kts | 316° |
| 2026-04-22 00:13 | 39.28009 | -106.86918 | 9567 ft | 166 kts | 313° |
| 2026-04-22 00:13 | 39.28836 | -106.87930 | 9030 ft | 161 kts | 299° |
| 2026-04-22 00:14 | 39.29050 | -106.89268 | 8698 ft | 151 kts | 256° |
| 2026-04-22 00:14 | 39.28500 | -106.90244 | 8611 ft | 126 kts | 197° |
| 2026-04-22 00:14 | 39.27840 | -106.89699 | 8091 ft | 147 kts | 112° |
| 2026-04-22 00:14 | 39.27231 | -106.88874 | 8061 ft | 121 kts | 165° |
| 2026-04-22 00:15 | 39.26403 | -106.88617 | 7976 ft | 123 kts | 175° |
| 2026-04-22 00:15 | 39.25584 | -106.88346 | 7737 ft | 115 kts | 168° |
| 2026-04-22 00:15 | 39.24864 | -106.88078 | 7585 ft | 106 kts | 167° |
| 2026-04-22 00:15 | 39.24182 | -106.87781 | 7605 ft | 107 kts | 161° |
| 2026-04-22 00:16 | 39.23487 | -106.87448 | 7738 ft | 107 kts | 166° |
| 2026-04-22 00:16 | 39.22779 | -106.87098 | 7718 ft | 106 kts | 163° |
| 2026-04-22 00:16 | 39.22344 | -106.86898 | 7745 ft | 20 kts | 151° |
| 2026-04-22 00:16 | 39.22337 | -106.86796 | 7746 ft | 9 kts | 44° |
| 2026-04-22 00:17 | 39.22342 | -106.86760 | 7747 ft | 16 kts | 179° |
| 2026-04-22 00:17 | 39.22215 | -106.86716 | 7756 ft | 20 kts | 162° |
| 2026-04-22 00:17 | 39.22108 | -106.86665 | 7765 ft | 12 kts | 161° |
| 2026-04-22 00:17 | 39.22041 | -106.86634 | 7772 ft | 11 kts | 160° |
| 2026-04-22 00:18 | 39.21941 | -106.86586 | 7783 ft | 16 kts | 160° |
| 2026-04-22 00:18 | 39.21870 | -106.86550 | 7789 ft | 8 kts | 160° |
| 2026-04-22 00:18 | 39.21818 | -106.86526 | 7792 ft | 10 kts | 158° |
| 2026-04-22 00:18 | 39.21748 | -106.86493 | 7797 ft | 22 kts | 161° |
| 2026-04-22 00:19 | 39.21587 | -106.86419 | 7811 ft | 23 kts | 160° |
| 2026-04-22 00:19 | 39.21454 | -106.86354 | 7819 ft | 18 kts | 161° |
| 2026-04-22 00:19 | 39.21356 | -106.86305 | 7828 ft | 14 kts | 158° |
| 2026-04-22 00:19 | 39.21269 | -106.86266 | 7833 ft | 12 kts | 160° |
| 2026-04-22 00:20 | 39.21217 | -106.86248 | 7835 ft | 0 kts | 201° |
| 2026-04-22 00:24 | 39.21213 | -106.86250 | 7832 ft | 5 kts | 201° |
| 2026-04-22 00:25 | 39.21172 | -106.86333 | 7835 ft | 12 kts | 300° |
| 2026-04-22 00:25 | 39.21187 | -106.86346 | 7833 ft | 0 kts | 339° |
| 2026-04-22 00:26 | 39.21188 | -106.86347 | 7833 ft | 0 kts | 339° |
| 2026-04-22 00:26 | 39.21401 | -106.86448 | 7823 ft | 77 kts | 340° |
| 2026-04-22 00:26 | 39.22114 | -106.86765 | 7848 ft | 129 kts | 346° |
| 2026-04-22 00:26 | 39.23039 | -106.86738 | 8198 ft | 143 kts | 11° |
| 2026-04-22 00:27 | 39.24058 | -106.86475 | 8653 ft | 154 kts | 3° |
| 2026-04-22 00:27 | 39.25123 | -106.86519 | 9086 ft | 156 kts | 0° |
| 2026-04-22 00:27 | 39.26200 | -106.86598 | 9360 ft | 154 kts | 333° |
| 2026-04-22 00:27 | 39.27178 | -106.87186 | 9609 ft | 157 kts | 328° |